Time;durP1;ratioP1;P1;durP2;ratioP2;P2;SDS_P1;SDS_P2;PMS_P1;PMS_P2;Temp;Humidity;BMP_temperature;BMP_pressure;BME280_temperature;BME280_humidity;BME280_pressure;Samples;Min_cycle;Max_cycle;Signal;HPM_P1;HPM_P2
2022/04/26 03:37:05;;;;;;;1.23;1.00;;;12.40;57.80;;;;;;4884553;29;20465;-80
2022/04/26 03:39:34;;;;;;;2.45;1.20;;;12.40;57.90;;;;;;4908826;29;20473;-80
2022/04/26 03:42:02;;;;;;;1.45;1.13;;;12.40;57.90;;;;;;4884121;29;20040;-80
2022/04/26 03:44:28;;;;;;;3.35;1.30;;;12.40;58.00;;;;;;4903877;29;20039;-80
2022/04/26 03:46:54;;;;;;;2.22;1.20;;;12.40;58.00;;;;;;4904386;29;20134;-80
2022/04/26 03:49:21;;;;;;;1.83;1.33;;;12.40;58.10;;;;;;4906414;29;20200;-80
2022/04/26 03:51:47;;;;;;;1.83;1.10;;;12.40;58.20;;;;;;4897378;29;20055;-80
2022/04/26 03:54:13;;;;;;;1.88;1.10;;;12.40;58.20;;;;;;4935064;28;20024;-80
2022/04/26 03:56:38;;;;;;;1.90;1.10;;;12.40;58.20;;;;;;4888734;29;20040;-80
2022/04/26 03:59:04;;;;;;;2.63;1.40;;;12.40;58.20;;;;;;4904291;29;20132;-80
2022/04/26 04:01:30;;;;;;;2.53;1.20;;;12.40;58.10;;;;;;4906095;29;20134;-80
2022/04/26 04:03:55;;;;;;;2.07;1.03;;;12.40;58.10;;;;;;4905077;29;20076;-80
2022/04/26 04:06:21;;;;;;;1.48;1.00;;;12.40;58.00;;;;;;4897106;29;20071;-80
2022/04/26 04:08:47;;;;;;;1.80;1.20;;;12.40;58.10;;;;;;4898022;29;20040;-80
2022/04/26 04:11:12;;;;;;;1.83;1.20;;;12.40;58.10;;;;;;4883979;29;20967;-80
2022/04/26 04:13:38;;;;;;;1.90;1.20;;;12.40;58.20;;;;;;4907510;29;20036;-80
2022/04/26 04:16:04;;;;;;;2.13;1.20;;;12.40;58.00;;;;;;4900826;29;20713;-80
2022/04/26 04:21:14;;;;;;;2.15;1.40;;;12.40;58.10;;;;;;4902050;29;20044;-80
2022/04/26 04:23:40;;;;;;;1.37;1.17;;;12.40;58.00;;;;;;4900909;29;20042;-80
2022/04/26 04:26:06;;;;;;;1.58;1.15;;;12.40;58.20;;;;;;4881973;29;21865;-79
2022/04/26 04:28:33;;;;;;;2.20;1.33;;;12.40;58.10;;;;;;4905640;29;20091;-80
2022/04/26 04:30:59;;;;;;;2.40;1.40;;;12.30;58.10;;;;;;4894379;29;20304;-80
2022/04/26 04:33:25;;;;;;;1.73;1.35;;;12.30;58.10;;;;;;4891777;29;20055;-79
2022/04/26 04:35:50;;;;;;;1.80;1.20;;;12.30;58.20;;;;;;4905048;29;20047;-81
2022/04/26 04:38:16;;;;;;;2.10;1.30;;;12.30;58.20;;;;;;4892551;29;20044;-80
2022/04/26 04:40:42;;;;;;;2.10;1.30;;;12.30;58.30;;;;;;4906491;29;20024;-80
2022/04/26 04:43:10;;;;;;;3.90;1.40;;;12.20;58.20;;;;;;4882679;29;20054;-80
2022/04/26 04:45:36;;;;;;;1.90;1.25;;;12.20;58.40;;;;;;4884594;29;20171;-79
2022/04/26 04:48:01;;;;;;;2.20;1.40;;;12.20;58.50;;;;;;4897301;29;20473;-80
2022/04/26 04:50:27;;;;;;;2.60;1.20;;;12.20;58.60;;;;;;4904704;29;20036;-80
2022/04/26 04:52:53;;;;;;;1.83;1.20;;;12.20;58.60;;;;;;4893973;29;20258;-80
2022/04/26 04:55:18;;;;;;;2.57;1.20;;;12.10;58.50;;;;;;4893681;29;20088;-80
2022/04/26 04:57:44;;;;;;;2.10;1.10;;;12.10;58.60;;;;;;4882718;29;20826;-80
2022/04/26 05:00:10;;;;;;;1.60;1.10;;;12.10;58.60;;;;;;4885901;29;20540;-80
2022/04/26 05:02:36;;;;;;;1.55;1.05;;;12.10;58.50;;;;;;4891384;29;20222;-80
2022/04/26 05:05:02;;;;;;;1.87;1.23;;;12.10;58.50;;;;;;4872619;29;20052;-80
2022/04/26 05:07:28;;;;;;;2.35;1.30;;;12.10;58.70;;;;;;4890194;29;20532;-80
2022/04/26 05:09:54;;;;;;;2.00;1.40;;;12.10;58.60;;;;;;4887246;29;20043;-79
2022/04/26 05:12:20;;;;;;;2.20;1.20;;;12.10;58.70;;;;;;4899036;29;20044;-80
2022/04/26 05:14:46;;;;;;;1.42;1.20;;;12.10;58.60;;;;;;4875888;29;20398;-80
2022/04/26 05:17:11;;;;;;;1.83;1.20;;;12.10;58.70;;;;;;4890452;29;20345;-81
2022/04/26 05:19:37;;;;;;;2.92;1.25;;;12.10;58.60;;;;;;4898118;29;20392;-80
2022/04/26 05:22:08;;;;;;;2.70;1.37;;;12.10;58.50;;;;;;4886381;29;20270;-80
2022/04/26 05:24:53;;;;;;;2.33;1.48;;;12.10;59.00;;;;;;4896379;29;20032;-80
2022/04/26 05:27:20;;;;;;;2.50;1.30;;;12.10;59.10;;;;;;4895998;29;20501;-80
2022/04/26 05:29:46;;;;;;;1.88;1.35;;;12.10;59.00;;;;;;4877703;29;20029;-80
2022/04/26 05:32:12;;;;;;;1.50;1.10;;;12.10;59.00;;;;;;4896974;29;20104;-80
2022/04/26 05:34:37;;;;;;;1.95;1.30;;;12.10;59.00;;;;;;4914100;29;20028;-80
2022/04/26 05:37:03;;;;;;;2.33;1.30;;;12.00;59.00;;;;;;4887224;29;20147;-80
2022/04/26 05:39:30;;;;;;;2.42;1.50;;;12.10;59.00;;;;;;4892430;29;20032;-80
2022/04/26 05:41:55;;;;;;;2.20;1.35;;;12.10;59.20;;;;;;4879226;29;20128;-79
2022/04/26 05:44:21;;;;;;;1.90;1.33;;;12.10;59.30;;;;;;4898295;29;20135;-80
2022/04/26 05:46:47;;;;;;;2.22;1.30;;;12.10;59.30;;;;;;4873214;29;20478;-80
2022/04/26 05:49:12;;;;;;;1.77;1.30;;;12.20;59.40;;;;;;4884047;29;20159;-80
2022/04/26 05:51:38;;;;;;;2.33;1.30;;;12.20;59.20;;;;;;4891766;29;20044;-80
2022/04/26 05:54:03;;;;;;;1.85;1.30;;;12.20;59.20;;;;;;4890791;29;22590;-80
2022/04/26 05:56:29;;;;;;;1.90;1.30;;;12.30;59.30;;;;;;4894263;29;20028;-80
2022/04/26 05:58:54;;;;;;;2.33;1.38;;;12.30;59.30;;;;;;4890415;29;20079;-80
2022/04/26 06:01:20;;;;;;;1.70;1.23;;;12.30;59.30;;;;;;4874101;29;20036;-80
2022/04/26 06:03:46;;;;;;;2.25;1.23;;;12.30;59.20;;;;;;4886520;29;20100;-81
2022/04/26 06:06:11;;;;;;;2.10;1.20;;;12.40;59.10;;;;;;4898691;29;20059;-80
2022/04/26 06:08:37;;;;;;;2.03;1.30;;;12.40;59.10;;;;;;4881351;29;20380;-80
2022/04/26 06:11:02;;;;;;;2.42;1.20;;;12.40;59.00;;;;;;4896739;29;20270;-80
2022/04/26 06:13:28;;;;;;;1.43;1.10;;;12.50;59.00;;;;;;4901892;29;20076;-80
2022/04/26 06:15:54;;;;;;;2.88;1.40;;;12.50;59.00;;;;;;4896000;29;20430;-80
2022/04/26 06:18:19;;;;;;;1.73;1.30;;;12.50;59.10;;;;;;4882990;29;20119;-80
2022/04/26 06:20:45;;;;;;;1.60;1.27;;;12.50;59.00;;;;;;4886936;29;20037;-79
2022/04/26 06:23:11;;;;;;;1.93;1.30;;;12.50;58.90;;;;;;4887367;29;20032;-80
2022/04/26 06:25:38;;;;;;;1.50;1.10;;;12.60;59.00;;;;;;4901553;29;20579;-80
2022/04/26 06:28:06;;;;;;;1.88;1.17;;;12.60;59.00;;;;;;4888227;29;20047;-80
2022/04/26 06:30:32;;;;;;;2.38;1.20;;;12.60;59.00;;;;;;4893665;29;20036;-80
2022/04/26 06:32:57;;;;;;;1.92;1.33;;;12.70;58.80;;;;;;4901761;29;20035;-79
2022/04/26 06:35:23;;;;;;;2.63;1.30;;;12.70;58.80;;;;;;4890717;29;20047;-80
2022/04/26 06:37:49;;;;;;;1.58;1.20;;;12.70;58.70;;;;;;4888324;29;20648;-79
2022/04/26 06:40:14;;;;;;;2.60;1.37;;;12.70;58.80;;;;;;4926736;29;20579;-80
2022/04/26 06:42:40;;;;;;;2.50;1.25;;;12.70;58.70;;;;;;4895415;29;20191;-80
2022/04/26 06:45:06;;;;;;;1.50;1.17;;;12.80;58.80;;;;;;4903864;29;20222;-80
2022/04/26 06:47:32;;;;;;;2.00;1.25;;;12.80;58.70;;;;;;4902664;29;20486;-80
2022/04/26 06:49:58;;;;;;;2.65;1.33;;;12.80;58.80;;;;;;4888663;29;20405;-80
2022/04/26 06:52:24;;;;;;;1.90;1.40;;;12.80;58.90;;;;;;4889715;29;20044;-80
2022/04/26 06:54:50;;;;;;;7.90;3.22;;;12.90;58.80;;;;;;4887660;29;20458;-80
2022/04/26 06:57:16;;;;;;;4.43;1.85;;;12.90;58.90;;;;;;4895040;29;20048;-80
2022/04/26 06:59:41;;;;;;;2.93;1.57;;;12.90;59.00;;;;;;4903287;29;20028;-80
2022/04/26 07:02:07;;;;;;;2.15;1.33;;;13.00;59.30;;;;;;4902405;29;20044;-80
2022/04/26 07:04:33;;;;;;;2.63;1.50;;;13.10;59.20;;;;;;4869442;29;20569;-79
2022/04/26 07:06:59;;;;;;;2.08;1.23;;;13.10;59.40;;;;;;4888813;29;20062;-80
2022/04/26 07:09:25;;;;;;;2.13;1.20;;;13.20;59.50;;;;;;4887258;29;23825;-80
2022/04/26 07:11:51;;;;;;;2.20;1.20;;;13.30;59.50;;;;;;4904769;29;20036;-80
2022/04/26 07:14:17;;;;;;;2.25;1.15;;;13.40;59.60;;;;;;4870287;29;20043;-80
2022/04/26 07:16:48;;;;;;;1.85;1.30;;;13.50;59.60;;;;;;4898985;29;20034;-81
2022/04/26 07:19:13;;;;;;;2.17;1.40;;;13.60;59.70;;;;;;4881144;29;20521;-80
2022/04/26 07:21:41;;;;;;;2.17;1.30;;;13.70;59.60;;;;;;4877217;29;20056;-79
2022/04/26 07:24:06;;;;;;;2.00;1.38;;;13.80;59.50;;;;;;4902681;29;20041;-80
2022/04/26 07:26:32;;;;;;;3.17;1.40;;;13.90;59.30;;;;;;4877472;29;20062;-80
2022/04/26 07:28:57;;;;;;;1.65;1.15;;;13.90;59.00;;;;;;4896774;29;20043;-80
2022/04/26 07:31:23;;;;;;;1.83;1.37;;;14.00;59.10;;;;;;4900829;29;20104;-80
2022/04/26 07:36:34;;;;;;;2.70;1.43;;;14.10;59.20;;;;;;4866643;29;20029;-80
2022/04/26 07:38:59;;;;;;;2.95;1.50;;;14.10;59.20;;;;;;4904581;29;20501;-80
2022/04/26 07:41:25;;;;;;;2.00;1.50;;;14.20;59.20;;;;;;4879093;29;20040;-80
2022/04/26 07:43:52;;;;;;;2.50;1.50;;;14.20;59.10;;;;;;4890426;29;20229;-80
2022/04/26 07:46:18;;;;;;;2.45;1.70;;;14.20;59.00;;;;;;4891567;29;20117;-80
2022/04/26 07:48:44;;;;;;;2.53;1.60;;;14.30;59.10;;;;;;4896584;29;20044;-80
2022/04/26 07:51:11;;;;;;;3.10;1.73;;;14.30;59.10;;;;;;4899997;29;20376;-80
2022/04/26 07:53:37;;;;;;;3.17;1.60;;;14.40;59.10;;;;;;4894278;29;20040;-79
2022/04/26 07:56:03;;;;;;;3.55;1.70;;;14.50;59.30;;;;;;4908784;29;20048;-80
2022/04/26 07:58:29;;;;;;;2.47;1.70;;;14.50;59.50;;;;;;4882646;29;20047;-80
2022/04/26 08:00:55;;;;;;;3.13;1.90;;;14.60;59.70;;;;;;4896576;29;20306;-80
2022/04/26 08:03:20;;;;;;;2.50;1.60;;;14.80;59.90;;;;;;4900491;29;20127;-80
2022/04/26 08:05:46;;;;;;;2.33;1.60;;;15.00;60.00;;;;;;4865229;29;20605;-80
2022/04/26 08:08:12;;;;;;;2.75;1.73;;;15.20;60.00;;;;;;4893750;29;20033;-80
2022/04/26 08:10:38;;;;;;;2.30;1.80;;;15.30;59.30;;;;;;4878433;29;20489;-80
2022/04/26 08:13:04;;;;;;;4.07;1.75;;;15.50;59.10;;;;;;4881256;29;20052;-80
2022/04/26 08:15:29;;;;;;;3.03;1.90;;;15.70;60.00;;;;;;4894688;29;20060;-81
2022/04/26 08:17:55;;;;;;;4.33;1.87;;;16.00;61.50;;;;;;4918296;29;20523;-81
2022/04/26 08:20:22;;;;;;;2.50;1.90;;;16.50;62.40;;;;;;4890659;29;20349;-80
2022/04/26 08:22:48;;;;;;;3.70;2.00;;;17.00;62.00;;;;;;4888952;29;20256;-81
2022/04/26 08:28:09;;;;;;;3.33;1.95;;;17.80;59.90;;;;;;4905461;29;20196;-81
2022/04/26 08:30:34;;;;;;;2.70;1.65;;;18.30;60.80;;;;;;4898516;29;20119;-80
2022/04/26 08:33:00;;;;;;;2.50;1.87;;;18.80;61.00;;;;;;4888613;29;20029;-81
2022/04/26 08:35:27;;;;;;;2.40;1.90;;;19.30;60.80;;;;;;4891574;29;20084;-82
2022/04/26 08:37:53;;;;;;;2.40;2.00;;;19.90;60.00;;;;;;4871534;29;20141;-81
2022/04/26 08:40:19;;;;;;;2.40;1.88;;;20.50;60.00;;;;;;4883689;29;20103;-80
2022/04/26 08:42:47;;;;;;;2.53;1.95;;;21.00;58.60;;;;;;4879081;29;20194;-81
2022/04/26 08:45:18;;;;;;;2.60;2.08;;;21.40;57.30;;;;;;4897991;29;20061;-81
2022/04/26 08:53:19;;;;;;;3.88;1.85;;;22.60;53.40;;;;;;4876840;29;20481;-81
2022/04/26 08:55:53;;;;;;;2.47;1.67;;;22.90;52.20;;;;;;4892084;29;20233;-80
2022/04/26 08:58:21;;;;;;;2.55;1.90;;;23.00;51.20;;;;;;4904644;29;20063;-81
2022/04/26 09:01:25;;;;;;;2.80;2.00;;;23.20;52.10;;;;;;4895680;29;20046;-82
2022/04/26 09:03:59;;;;;;;2.72;2.17;;;23.50;50.80;;;;;;4846748;29;20556;-82
2022/04/26 09:06:39;;;;;;;3.35;1.80;;;23.70;52.50;;;;;;4881332;29;20236;-80
2022/04/26 09:09:24;;;;;;;3.15;1.80;;;23.90;49.60;;;;;;4871699;29;20412;-82
2022/04/26 09:11:50;;;;;;;2.35;1.75;;;24.00;48.10;;;;;;4899751;29;20040;-82
2022/04/26 09:14:47;;;;;;;2.90;1.97;;;24.00;48.60;;;;;;4885766;29;20237;-81
2022/04/26 09:17:16;;;;;;;4.07;2.13;;;23.90;46.10;;;;;;4889224;29;20032;-80
2022/04/26 09:19:50;;;;;;;2.97;2.10;;;23.70;47.30;;;;;;4884336;29;20035;-80
2022/04/26 09:22:21;;;;;;;3.47;2.05;;;23.60;47.00;;;;;;4897637;29;20092;-81
2022/04/26 09:25:19;;;;;;;3.15;2.30;;;23.60;48.20;;;;;;4881117;29;20040;-81
2022/04/26 09:27:45;;;;;;;3.97;1.90;;;23.80;47.20;;;;;;4871222;29;20040;-81
2022/04/26 09:30:13;;;;;;;3.50;2.15;;;24.00;49.20;;;;;;4879261;29;20046;-81
2022/04/26 09:32:47;;;;;;;3.63;1.92;;;24.20;49.30;;;;;;4903897;29;20398;-80
2022/04/26 09:35:20;;;;;;;2.33;1.67;;;24.50;47.20;;;;;;4883469;29;20634;-81
2022/04/26 09:37:46;;;;;;;2.13;1.88;;;24.70;47.50;;;;;;4890493;29;20397;-81
2022/04/26 09:40:12;;;;;;;1.90;1.70;;;25.00;48.60;;;;;;4870944;29;20044;-82
2022/04/26 09:42:37;;;;;;;2.42;1.80;;;25.40;48.30;;;;;;4898212;29;20476;-81
2022/04/26 09:45:08;;;;;;;2.50;1.80;;;25.80;48.20;;;;;;4881646;29;20383;-80
2022/04/26 09:47:42;;;;;;;3.25;1.77;;;26.10;46.60;;;;;;4912517;28;20036;-81
2022/04/26 09:50:09;;;;;;;3.72;1.85;;;26.40;45.40;;;;;;4883467;29;20170;-80
2022/04/26 09:52:36;;;;;;;3.20;1.85;;;26.70;46.20;;;;;;4895919;29;20425;-80
2022/04/26 09:55:03;;;;;;;2.50;1.90;;;27.00;45.70;;;;;;4875007;29;20037;-81
2022/04/26 09:57:32;;;;;;;1.90;1.70;;;27.20;44.50;;;;;;4886669;29;20029;-81
2022/04/26 09:59:59;;;;;;;2.25;1.90;;;27.40;44.00;;;;;;4883174;29;20028;-82
2022/04/26 10:02:31;;;;;;;2.33;1.55;;;27.60;44.20;;;;;;4893678;29;20044;-83
2022/04/26 10:05:05;;;;;;;2.92;2.17;;;27.80;43.10;;;;;;4876704;29;20474;-80
2022/04/26 10:07:43;;;;;;;2.20;1.70;;;28.10;42.20;;;;;;4918043;29;20044;-81
2022/04/26 10:10:09;;;;;;;2.53;1.60;;;28.40;41.10;;;;;;4875168;29;25569;-81
2022/04/26 10:12:36;;;;;;;2.65;1.88;;;28.60;42.80;;;;;;4893495;29;20318;-81
2022/04/26 10:15:02;;;;;;;2.50;1.92;;;28.80;42.40;;;;;;4886499;29;20509;-82
2022/04/26 10:17:32;;;;;;;2.13;1.75;;;29.10;42.10;;;;;;4893584;29;20066;-82
2022/04/26 10:20:00;;;;;;;3.83;2.20;;;29.30;41.60;;;;;;4895750;29;20091;-80
2022/04/26 10:22:58;;;;;;;2.17;1.70;;;29.50;39.70;;;;;;4933986;29;20545;-82
2022/04/26 10:25:26;;;;;;;2.58;1.80;;;29.50;37.00;;;;;;4905379;29;20047;-81
2022/04/26 10:28:16;;;;;;;2.80;1.88;;;29.50;38.60;;;;;;4872256;29;20080;-82
2022/04/26 10:30:55;;;;;;;2.80;1.70;;;29.40;35.00;;;;;;4910398;29;20040;-81
2022/04/26 10:33:38;;;;;;;2.53;1.60;;;29.10;35.30;;;;;;4881857;29;20662;-81
2022/04/26 10:36:36;;;;;;;2.30;1.70;;;28.80;35.10;;;;;;4895854;29;20130;-82
2022/04/26 10:39:13;;;;;;;2.22;1.63;;;28.50;35.80;;;;;;4895548;29;20043;-81
2022/04/26 10:41:41;;;;;;;2.67;1.50;;;28.50;36.80;;;;;;4911929;29;20043;-82
2022/04/26 10:44:13;;;;;;;2.42;1.48;;;28.50;38.00;;;;;;4873950;29;20250;-83
2022/04/26 10:47:02;;;;;;;2.20;1.77;;;28.60;37.10;;;;;;4908109;29;20036;-82
2022/04/26 10:49:40;;;;;;;3.13;1.60;;;28.80;37.80;;;;;;4881499;29;20506;-80
2022/04/26 10:52:13;;;;;;;1.88;1.50;;;29.10;36.20;;;;;;4883019;29;20088;-81
2022/04/26 10:54:48;;;;;;;2.10;1.70;;;29.20;36.00;;;;;;4900037;29;20036;-82
2022/04/26 10:57:16;;;;;;;1.90;1.45;;;29.30;35.40;;;;;;4873597;29;20032;-80
2022/04/26 10:59:42;;;;;;;3.00;1.70;;;29.40;35.90;;;;;;4894324;29;20568;-81
2022/04/26 11:02:16;;;;;;;1.88;1.50;;;29.30;35.20;;;;;;4888829;29;20044;-83
2022/04/26 11:04:42;;;;;;;1.98;1.50;;;29.30;33.70;;;;;;4910707;29;20474;-82
2022/04/26 11:07:17;;;;;;;1.70;1.33;;;29.20;34.20;;;;;;4898722;29;20556;-80
2022/04/26 11:09:44;;;;;;;2.47;1.83;;;29.10;33.30;;;;;;4883942;29;20425;-81
2022/04/26 11:12:10;;;;;;;2.47;1.57;;;29.10;33.70;;;;;;4871528;29;20450;-82
2022/04/26 11:14:42;;;;;;;2.47;1.83;;;29.10;33.80;;;;;;4888275;29;20055;-82
2022/04/26 11:17:08;;;;;;;2.90;1.70;;;29.10;31.20;;;;;;4885102;29;20044;-80
2022/04/26 11:19:38;;;;;;;1.60;1.30;;;28.90;32.80;;;;;;4888458;29;20103;-81
2022/04/26 11:22:04;;;;;;;3.45;1.50;;;28.90;32.30;;;;;;4887790;29;20049;-81
2022/04/26 11:30:00;;;;;;;2.80;1.60;;;28.50;31.30;;;;;;4874280;29;20056;-81
2022/04/26 11:32:42;;;;;;;2.65;1.60;;;28.50;31.10;;;;;;4892298;29;20040;-81
2022/04/26 11:35:10;;;;;;;1.70;1.30;;;28.40;30.20;;;;;;4881052;29;20127;-82
2022/04/26 11:37:50;;;;;;;2.97;1.77;;;28.40;32.00;;;;;;4894818;29;20262;-81
2022/04/26 11:40:34;;;;;;;2.60;1.57;;;28.70;29.90;;;;;;4887574;29;20120;-82
2022/04/26 11:43:13;;;;;;;2.13;1.52;;;28.80;29.40;;;;;;4886626;29;20048;-81
2022/04/26 11:45:44;;;;;;;2.88;1.60;;;28.90;30.00;;;;;;4887035;29;20114;-82
2022/04/26 11:48:12;;;;;;;1.88;1.45;;;28.90;29.50;;;;;;4884954;29;20123;-82
2022/04/26 11:50:38;;;;;;;1.70;1.60;;;28.70;30.00;;;;;;4925155;28;20044;-81
2022/04/26 11:53:09;;;;;;;2.57;1.87;;;28.50;30.20;;;;;;4897032;29;20045;-81
2022/04/26 11:55:41;;;;;;;2.15;1.48;;;28.50;30.50;;;;;;4906099;29;20028;-81
2022/04/26 11:58:16;;;;;;;2.97;1.90;;;28.50;30.70;;;;;;4893244;29;20139;-80
2022/04/26 12:01:13;;;;;;;1.77;1.55;;;28.50;30.60;;;;;;4879333;29;20088;-81
2022/04/26 12:03:48;;;;;;;3.35;1.75;;;28.60;30.20;;;;;;4885472;29;20059;-81
2022/04/26 12:06:20;;;;;;;2.30;1.70;;;28.60;30.10;;;;;;4882863;29;20035;-81
2022/04/26 12:08:57;;;;;;;2.20;1.60;;;28.50;30.20;;;;;;4904818;29;20041;-82
2022/04/26 12:11:26;;;;;;;3.22;1.80;;;28.40;30.00;;;;;;4900585;29;20123;-81
2022/04/26 12:14:07;;;;;;;3.05;1.83;;;28.20;30.10;;;;;;4898528;29;20055;-82
2022/04/26 12:16:47;;;;;;;3.42;1.80;;;28.10;30.00;;;;;;4873151;29;25845;-81
2022/04/26 12:19:14;;;;;;;2.17;1.80;;;28.10;31.30;;;;;;4893366;29;20043;-80
2022/04/26 12:21:59;;;;;;;2.72;1.70;;;28.00;30.40;;;;;;4896427;29;20047;-80
2022/04/26 12:24:51;;;;;;;3.20;1.75;;;27.90;30.30;;;;;;4907645;29;20702;-81
2022/04/26 12:27:26;;;;;;;3.30;1.67;;;27.80;30.40;;;;;;4878072;29;20651;-80
2022/04/26 12:29:52;;;;;;;2.60;1.75;;;27.80;31.30;;;;;;4938502;29;20035;-81
2022/04/26 12:32:26;;;;;;;2.13;1.50;;;27.90;31.40;;;;;;4874455;29;20160;-80
2022/04/26 12:34:58;;;;;;;1.92;1.58;;;27.90;30.60;;;;;;4901448;29;20430;-83
2022/04/26 12:37:29;;;;;;;2.92;1.60;;;27.90;31.50;;;;;;4886468;29;20285;-82
2022/04/26 12:40:10;;;;;;;2.17;1.60;;;28.10;32.10;;;;;;4905771;29;20032;-81
2022/04/26 12:42:41;;;;;;;2.10;1.45;;;28.40;31.10;;;;;;4902071;29;20086;-82
2022/04/26 12:45:21;;;;;;;1.80;1.63;;;28.70;32.00;;;;;;4885590;29;20045;-82
2022/04/26 12:50:47;;;;;;;2.05;1.40;;;29.20;30.00;;;;;;4904014;29;20039;-81
2022/04/26 12:53:22;;;;;;;2.20;1.75;;;29.40;30.90;;;;;;4877686;29;20033;-81
2022/04/26 12:55:48;;;;;;;2.10;1.50;;;29.60;29.80;;;;;;4905099;29;20425;-81
2022/04/26 12:58:16;;;;;;;2.40;1.60;;;29.60;30.00;;;;;;4886043;29;20048;-81
2022/04/26 13:00:45;;;;;;;1.90;1.60;;;29.50;29.50;;;;;;4891174;29;20033;-80
2022/04/26 13:03:13;;;;;;;2.20;1.43;;;29.30;29.20;;;;;;4870303;29;20040;-80
2022/04/26 13:05:45;;;;;;;3.55;1.75;;;29.20;29.50;;;;;;4890627;29;20403;-81
2022/04/26 13:08:12;;;;;;;3.05;1.77;;;29.10;29.20;;;;;;4893103;29;20383;-80
2022/04/26 13:10:42;;;;;;;2.92;1.80;;;28.90;29.20;;;;;;4877943;29;20704;-81
2022/04/26 13:13:11;;;;;;;2.67;1.70;;;28.70;29.00;;;;;;4899322;29;20070;-81
2022/04/26 13:15:37;;;;;;;2.17;1.70;;;28.50;28.90;;;;;;4903779;29;20530;-81
2022/04/26 13:18:03;;;;;;;1.73;1.40;;;28.30;29.30;;;;;;4899046;29;20144;-81
2022/04/26 13:20:30;;;;;;;3.28;1.40;;;28.20;29.70;;;;;;4875186;29;20607;-81
2022/04/26 13:22:56;;;;;;;2.42;1.70;;;28.20;30.00;;;;;;4900823;29;20392;-82
2022/04/26 13:25:22;;;;;;;2.60;1.60;;;28.30;29.90;;;;;;4890566;29;20152;-81
2022/04/26 13:27:48;;;;;;;2.43;1.70;;;28.30;29.90;;;;;;4892238;29;20047;-80
2022/04/26 13:30:15;;;;;;;2.42;1.55;;;28.30;29.30;;;;;;4881352;29;20091;-81
2022/04/26 13:32:41;;;;;;;2.10;1.65;;;28.20;29.30;;;;;;4908409;29;20036;-81
2022/04/26 13:35:07;;;;;;;2.38;1.70;;;28.10;30.00;;;;;;4870124;29;20039;-81
2022/04/26 13:37:33;;;;;;;2.10;1.40;;;27.90;29.20;;;;;;4902967;29;20032;-80
2022/04/26 13:40:00;;;;;;;4.63;1.60;;;27.80;29.30;;;;;;4904089;29;20062;-81
2022/04/26 13:42:27;;;;;;;2.15;1.60;;;27.70;29.40;;;;;;4888464;29;20610;-81
2022/04/26 13:44:54;;;;;;;1.98;1.50;;;27.70;29.90;;;;;;4896171;29;20040;-81
2022/04/26 13:47:21;;;;;;;3.25;1.80;;;27.70;30.10;;;;;;4904473;29;20164;-80
2022/04/26 13:49:47;;;;;;;2.30;1.53;;;28.00;30.10;;;;;;4886931;29;20041;-81
2022/04/26 13:52:15;;;;;;;2.03;1.40;;;28.10;29.80;;;;;;4884714;29;20039;-81
2022/04/26 13:54:42;;;;;;;2.10;1.50;;;28.20;29.60;;;;;;4888496;29;20457;-80
2022/04/26 13:57:08;;;;;;;2.72;1.60;;;28.20;29.30;;;;;;4878705;29;20051;-80
2022/04/26 13:59:34;;;;;;;2.33;1.60;;;28.20;29.00;;;;;;4886426;29;20222;-81
2022/04/26 14:02:00;;;;;;;2.10;1.60;;;28.10;29.30;;;;;;4902500;29;20040;-81
2022/04/26 14:04:26;;;;;;;3.97;1.60;;;28.10;29.20;;;;;;4886446;29;20036;-80
2022/04/26 14:06:52;;;;;;;1.75;1.50;;;27.90;29.00;;;;;;4885735;29;20055;-81
2022/04/26 14:09:18;;;;;;;2.00;1.60;;;27.80;29.20;;;;;;4885300;29;20036;-82
2022/04/26 14:11:45;;;;;;;2.33;1.60;;;27.80;29.30;;;;;;4872014;29;20036;-80
2022/04/26 14:22:30;;;;;;;3.27;1.90;;;28.00;29.60;;;;;;4877714;29;20040;-81
2022/04/26 14:25:00;;;;;;;2.33;1.60;;;27.90;28.90;;;;;;4885056;29;20219;-80
2022/04/26 14:27:32;;;;;;;3.28;1.70;;;27.70;28.50;;;;;;4884282;29;20044;-81
2022/04/26 14:29:58;;;;;;;2.25;1.80;;;27.50;28.20;;;;;;4889420;29;20258;-80
2022/04/26 14:32:24;;;;;;;3.03;1.87;;;27.20;28.50;;;;;;4895992;29;20379;-81
2022/04/26 14:34:49;;;;;;;3.25;1.70;;;27.00;28.30;;;;;;4880801;29;20695;-82
2022/04/26 14:37:16;;;;;;;2.57;2.00;;;26.70;28.70;;;;;;4875542;29;20394;-81
2022/04/26 14:39:42;;;;;;;2.57;1.90;;;26.50;29.00;;;;;;4895171;29;20962;-80
2022/04/26 14:42:08;;;;;;;2.53;1.77;;;26.40;29.00;;;;;;4888422;29;20037;-81
2022/04/26 14:44:35;;;;;;;3.22;1.77;;;26.30;28.80;;;;;;4896721;29;20416;-79
2022/04/26 14:47:02;;;;;;;2.20;1.70;;;26.20;28.90;;;;;;4901991;29;20030;-80
2022/04/26 14:49:28;;;;;;;2.05;1.73;;;26.00;28.90;;;;;;4891656;29;20040;-80
2022/04/26 14:51:54;;;;;;;2.40;1.90;;;25.80;28.80;;;;;;4888000;29;20243;-80
2022/04/26 14:54:20;;;;;;;2.85;1.80;;;25.60;28.80;;;;;;4874509;29;20047;-80
2022/04/26 14:56:47;;;;;;;2.17;1.60;;;25.40;29.00;;;;;;4876228;29;21095;-81
2022/04/26 14:59:17;;;;;;;4.13;1.98;;;25.20;29.20;;;;;;4920246;29;20095;-81
2022/04/26 15:01:48;;;;;;;2.53;1.73;;;25.10;29.20;;;;;;4925757;29;20153;-81
2022/04/26 15:04:15;;;;;;;4.50;2.00;;;24.90;29.30;;;;;;4904095;29;20051;-80
2022/04/26 15:06:41;;;;;;;2.75;2.08;;;24.70;29.50;;;;;;4872443;29;20307;-79
2022/04/26 15:17:19;;;;;;;3.57;1.93;;;24.20;29.90;;;;;;4903752;29;20032;-80
2022/04/26 15:19:46;;;;;;;2.72;2.13;;;24.20;30.40;;;;;;4890825;29;20235;-80
2022/04/26 15:22:13;;;;;;;2.40;1.70;;;24.10;30.00;;;;;;4889665;29;20040;-80
2022/04/26 15:24:40;;;;;;;3.73;2.17;;;24.00;30.00;;;;;;4884919;29;20036;-79
2022/04/26 15:27:06;;;;;;;2.90;1.80;;;24.00;29.90;;;;;;4893058;29;20461;-80
2022/04/26 15:29:32;;;;;;;4.38;2.10;;;23.90;30.10;;;;;;4890275;29;20159;-80
2022/04/26 15:31:58;;;;;;;3.30;2.10;;;24.00;30.10;;;;;;4898614;29;20139;-79
2022/04/26 15:34:23;;;;;;;3.75;2.10;;;24.00;30.10;;;;;;4897745;29;20028;-80
2022/04/26 15:36:49;;;;;;;3.23;2.07;;;24.00;31.10;;;;;;4883153;29;20116;-79
2022/04/26 15:39:14;;;;;;;2.45;1.73;;;24.00;31.00;;;;;;4876167;29;20032;-80
2022/04/26 15:41:40;;;;;;;2.80;2.10;;;24.00;30.30;;;;;;4893273;29;20033;-79
2022/04/26 15:44:06;;;;;;;3.08;2.00;;;23.90;30.10;;;;;;4885569;29;20433;-81
2022/04/26 15:46:31;;;;;;;3.13;2.10;;;23.80;30.00;;;;;;4883095;29;20040;-82
2022/04/26 15:48:58;;;;;;;2.58;1.92;;;23.70;29.80;;;;;;4890173;29;20032;-81
2022/04/26 15:51:25;;;;;;;3.87;2.10;;;23.50;29.80;;;;;;4897908;29;20032;-82
2022/04/26 15:53:51;;;;;;;3.00;2.30;;;23.40;29.80;;;;;;4881241;29;20035;-81
2022/04/26 15:56:17;;;;;;;2.67;1.92;;;23.10;30.00;;;;;;4885880;29;20043;-83
2022/04/26 15:58:44;;;;;;;2.83;1.92;;;23.00;30.50;;;;;;4888497;29;20032;-80
2022/04/26 16:01:11;;;;;;;2.80;1.90;;;22.90;30.80;;;;;;4899071;29;20047;-80
2022/04/26 16:03:38;;;;;;;2.87;1.83;;;22.90;30.90;;;;;;4889351;29;20032;-82
2022/04/26 16:06:04;;;;;;;2.30;1.80;;;22.90;31.00;;;;;;4891442;29;20395;-82
2022/04/26 16:08:32;;;;;;;3.15;1.95;;;22.90;31.20;;;;;;4886772;29;20115;-82
2022/04/26 16:21:55;;;;;;;3.60;1.90;;;22.90;31.50;;;;;;4885839;29;20131;-80
2022/04/26 16:24:21;;;;;;;3.93;1.90;;;22.90;31.70;;;;;;4886757;29;20032;-79
2022/04/26 16:26:46;;;;;;;2.60;2.00;;;22.90;31.70;;;;;;4885600;29;20700;-79
2022/04/26 16:29:12;;;;;;;4.07;2.00;;;22.80;31.60;;;;;;4895392;29;20036;-80
2022/04/26 16:31:38;;;;;;;2.80;1.92;;;22.70;31.60;;;;;;4882459;29;20077;-79
2022/04/26 16:34:04;;;;;;;3.17;1.85;;;22.60;31.60;;;;;;4901956;29;20028;-80
2022/04/26 16:36:30;;;;;;;3.03;1.80;;;22.50;31.60;;;;;;4895074;29;20032;-79
2022/04/26 16:38:57;;;;;;;2.63;1.83;;;22.30;31.90;;;;;;4897187;29;20164;-79
2022/04/26 16:41:23;;;;;;;2.92;1.90;;;22.20;32.20;;;;;;4894971;29;20818;-80
2022/04/26 16:43:49;;;;;;;3.33;1.90;;;22.10;32.30;;;;;;4882591;29;20072;-79
2022/04/26 16:46:20;;;;;;;2.45;1.70;;;22.00;32.40;;;;;;4905799;29;20241;-80
2022/04/26 16:48:45;;;;;;;3.17;1.77;;;22.00;32.60;;;;;;4899922;29;20032;-79
2022/04/26 16:51:14;;;;;;;3.22;2.00;;;21.90;32.70;;;;;;4902466;29;20126;-80
2022/04/26 16:53:40;;;;;;;2.60;1.80;;;21.80;32.80;;;;;;4905506;29;20024;-81
2022/04/26 16:56:06;;;;;;;2.33;2.00;;;21.70;33.00;;;;;;4892502;29;20497;-79
2022/04/26 16:58:32;;;;;;;3.38;1.98;;;21.70;33.10;;;;;;4875553;29;20097;-79
2022/04/26 17:00:57;;;;;;;3.60;1.83;;;21.50;33.10;;;;;;4912870;29;20035;-79
2022/04/26 17:03:24;;;;;;;3.92;1.90;;;21.50;33.30;;;;;;4931537;28;20250;-79
2022/04/26 17:05:49;;;;;;;2.50;1.77;;;21.40;33.40;;;;;;4905123;29;20135;-79
2022/04/26 17:08:17;;;;;;;2.40;1.70;;;21.30;33.40;;;;;;4906951;29;20139;-80
2022/04/26 17:10:43;;;;;;;3.22;1.80;;;21.30;33.80;;;;;;4905631;29;20079;-79
2022/04/26 17:13:09;;;;;;;2.45;1.75;;;21.20;33.90;;;;;;4865067;29;20448;-81
2022/04/26 17:15:36;;;;;;;3.87;2.20;;;21.20;34.00;;;;;;4905774;29;20048;-79
2022/04/26 17:18:02;;;;;;;2.70;1.90;;;21.20;34.10;;;;;;4900974;28;20032;-81
2022/04/26 17:20:33;;;;;;;2.50;2.03;;;21.20;34.00;;;;;;4891410;29;20034;-81